sensor_id;sensor_type;location;lat;lon;timestamp;P1;durP1;ratioP1;P2;durP2;ratioP2
43327;SDS011;28923;45.412;10.852;2023-03-01T00:02:15;168.00;;;108.90;;
43327;SDS011;28923;45.412;10.852;2023-03-01T00:04:41;173.30;;;111.53;;
43327;SDS011;28923;45.412;10.852;2023-03-01T00:07:06;170.35;;;109.45;;
43327;SDS011;28923;45.412;10.852;2023-03-01T00:09:32;173.23;;;111.57;;
43327;SDS011;28923;45.412;10.852;2023-03-01T00:11:57;171.35;;;112.20;;
43327;SDS011;28923;45.412;10.852;2023-03-01T00:14:22;177.90;;;114.82;;
43327;SDS011;28923;45.412;10.852;2023-03-01T00:16:48;169.63;;;111.63;;
43327;SDS011;28923;45.412;10.852;2023-03-01T00:19:15;178.50;;;116.13;;
43327;SDS011;28923;45.412;10.852;2023-03-01T00:21:41;176.27;;;117.40;;
43327;SDS011;28923;45.412;10.852;2023-03-01T00:24:06;178.93;;;115.38;;
43327;SDS011;28923;45.412;10.852;2023-03-01T00:26:31;177.05;;;118.68;;
43327;SDS011;28923;45.412;10.852;2023-03-01T00:28:57;178.48;;;116.43;;
43327;SDS011;28923;45.412;10.852;2023-03-01T00:31:24;178.00;;;117.18;;
43327;SDS011;28923;45.412;10.852;2023-03-01T00:33:53;182.85;;;119.25;;
43327;SDS011;28923;45.412;10.852;2023-03-01T00:36:22;182.17;;;118.40;;
43327;SDS011;28923;45.412;10.852;2023-03-01T00:38:48;185.23;;;119.32;;
43327;SDS011;28923;45.412;10.852;2023-03-01T00:41:14;178.65;;;117.63;;
43327;SDS011;28923;45.412;10.852;2023-03-01T00:43:40;183.20;;;120.95;;
43327;SDS011;28923;45.412;10.852;2023-03-01T00:46:08;180.27;;;117.88;;
43327;SDS011;28923;45.412;10.852;2023-03-01T00:48:34;181.60;;;122.45;;
43327;SDS011;28923;45.412;10.852;2023-03-01T00:51:13;177.60;;;120.38;;
43327;SDS011;28923;45.412;10.852;2023-03-01T00:53:39;179.57;;;121.03;;
43327;SDS011;28923;45.412;10.852;2023-03-01T00:56:05;183.93;;;120.25;;
43327;SDS011;28923;45.412;10.852;2023-03-01T00:58:31;181.75;;;121.35;;
43327;SDS011;28923;45.412;10.852;2023-03-01T01:00:56;186.27;;;120.78;;
43327;SDS011;28923;45.412;10.852;2023-03-01T01:03:22;178.32;;;118.90;;
43327;SDS011;28923;45.412;10.852;2023-03-01T01:05:50;186.68;;;122.53;;
43327;SDS011;28923;45.412;10.852;2023-03-01T01:08:16;180.75;;;121.38;;
43327;SDS011;28923;45.412;10.852;2023-03-01T01:10:43;187.57;;;124.60;;
43327;SDS011;28923;45.412;10.852;2023-03-01T01:13:08;184.35;;;124.13;;
43327;SDS011;28923;45.412;10.852;2023-03-01T01:15:34;194.75;;;125.60;;
43327;SDS011;28923;45.412;10.852;2023-03-01T01:18:00;178.07;;;120.80;;
43327;SDS011;28923;45.412;10.852;2023-03-01T01:20:26;185.77;;;121.43;;
43327;SDS011;28923;45.412;10.852;2023-03-01T01:22:51;186.40;;;122.30;;
43327;SDS011;28923;45.412;10.852;2023-03-01T01:25:17;176.30;;;121.30;;
43327;SDS011;28923;45.412;10.852;2023-03-01T01:27:42;183.52;;;119.50;;
43327;SDS011;28923;45.412;10.852;2023-03-01T01:30:08;181.20;;;121.57;;
43327;SDS011;28923;45.412;10.852;2023-03-01T01:32:33;190.15;;;124.43;;
43327;SDS011;28923;45.412;10.852;2023-03-01T01:34:59;186.25;;;126.50;;
43327;SDS011;28923;45.412;10.852;2023-03-01T01:37:24;193.48;;;126.38;;
43327;SDS011;28923;45.412;10.852;2023-03-01T01:39:59;193.90;;;128.10;;
43327;SDS011;28923;45.412;10.852;2023-03-01T01:42:25;188.05;;;127.10;;
43327;SDS011;28923;45.412;10.852;2023-03-01T01:47:35;189.35;;;126.28;;
43327;SDS011;28923;45.412;10.852;2023-03-01T01:50:01;196.50;;;129.57;;
43327;SDS011;28923;45.412;10.852;2023-03-01T01:52:31;198.48;;;129.85;;
43327;SDS011;28923;45.412;10.852;2023-03-01T01:55:01;192.85;;;130.02;;
43327;SDS011;28923;45.412;10.852;2023-03-01T01:57:37;195.23;;;129.48;;
43327;SDS011;28923;45.412;10.852;2023-03-01T02:00:05;191.23;;;130.10;;
43327;SDS011;28923;45.412;10.852;2023-03-01T02:02:38;199.60;;;133.30;;
43327;SDS011;28923;45.412;10.852;2023-03-01T02:05:09;200.55;;;129.85;;
43327;SDS011;28923;45.412;10.852;2023-03-01T02:07:36;206.53;;;132.67;;
43327;SDS011;28923;45.412;10.852;2023-03-01T02:10:03;199.65;;;132.40;;
43327;SDS011;28923;45.412;10.852;2023-03-01T02:12:28;202.48;;;134.02;;
43327;SDS011;28923;45.412;10.852;2023-03-01T02:14:54;205.18;;;133.30;;
43327;SDS011;28923;45.412;10.852;2023-03-01T02:17:20;195.98;;;132.35;;
43327;SDS011;28923;45.412;10.852;2023-03-01T02:24:47;201.55;;;136.88;;
43327;SDS011;28923;45.412;10.852;2023-03-01T02:27:15;203.80;;;136.20;;
43327;SDS011;28923;45.412;10.852;2023-03-01T02:29:41;212.07;;;137.07;;
43327;SDS011;28923;45.412;10.852;2023-03-01T02:32:09;206.65;;;135.68;;
43327;SDS011;28923;45.412;10.852;2023-03-01T02:34:36;202.40;;;135.95;;
43327;SDS011;28923;45.412;10.852;2023-03-01T02:37:07;207.60;;;136.15;;
43327;SDS011;28923;45.412;10.852;2023-03-01T02:42:00;199.10;;;132.75;;
43327;SDS011;28923;45.412;10.852;2023-03-01T02:44:27;205.65;;;136.40;;
43327;SDS011;28923;45.412;10.852;2023-03-01T02:46:54;212.18;;;136.68;;
43327;SDS011;28923;45.412;10.852;2023-03-01T02:49:22;213.05;;;138.52;;
43327;SDS011;28923;45.412;10.852;2023-03-01T02:54:28;208.20;;;138.02;;
43327;SDS011;28923;45.412;10.852;2023-03-01T02:56:54;207.15;;;138.27;;
43327;SDS011;28923;45.412;10.852;2023-03-01T02:59:22;210.15;;;138.82;;
43327;SDS011;28923;45.412;10.852;2023-03-01T03:01:48;210.13;;;139.80;;
43327;SDS011;28923;45.412;10.852;2023-03-01T03:04:15;209.50;;;140.20;;
43327;SDS011;28923;45.412;10.852;2023-03-01T03:06:47;211.73;;;138.90;;
43327;SDS011;28923;45.412;10.852;2023-03-01T03:09:12;209.63;;;137.40;;
43327;SDS011;28923;45.412;10.852;2023-03-01T03:11:37;206.18;;;137.38;;
43327;SDS011;28923;45.412;10.852;2023-03-01T03:14:04;208.20;;;139.30;;
43327;SDS011;28923;45.412;10.852;2023-03-01T03:16:30;207.35;;;140.10;;
43327;SDS011;28923;45.412;10.852;2023-03-01T03:18:55;207.93;;;137.13;;
43327;SDS011;28923;45.412;10.852;2023-03-01T03:21:30;205.82;;;136.82;;
43327;SDS011;28923;45.412;10.852;2023-03-01T03:23:55;208.32;;;137.32;;
43327;SDS011;28923;45.412;10.852;2023-03-01T03:26:21;204.23;;;136.10;;
43327;SDS011;28923;45.412;10.852;2023-03-01T03:28:46;206.50;;;140.18;;
43327;SDS011;28923;45.412;10.852;2023-03-01T03:31:11;196.63;;;136.45;;
43327;SDS011;28923;45.412;10.852;2023-03-01T03:33:37;207.20;;;139.70;;
43327;SDS011;28923;45.412;10.852;2023-03-01T03:36:02;208.55;;;139.07;;
43327;SDS011;28923;45.412;10.852;2023-03-01T03:38:28;208.10;;;142.93;;
43327;SDS011;28923;45.412;10.852;2023-03-01T03:41:03;209.02;;;139.50;;
43327;SDS011;28923;45.412;10.852;2023-03-01T03:43:30;213.80;;;140.98;;
43327;SDS011;28923;45.412;10.852;2023-03-01T03:45:56;210.40;;;141.50;;
43327;SDS011;28923;45.412;10.852;2023-03-01T03:48:24;212.50;;;138.82;;
43327;SDS011;28923;45.412;10.852;2023-03-01T03:50:51;208.48;;;140.38;;
43327;SDS011;28923;45.412;10.852;2023-03-01T03:53:16;214.25;;;141.00;;
43327;SDS011;28923;45.412;10.852;2023-03-01T03:55:42;204.88;;;139.55;;
43327;SDS011;28923;45.412;10.852;2023-03-01T03:58:09;213.43;;;141.40;;
43327;SDS011;28923;45.412;10.852;2023-03-01T04:00:36;214.70;;;141.57;;
43327;SDS011;28923;45.412;10.852;2023-03-01T04:03:02;210.25;;;140.43;;
43327;SDS011;28923;45.412;10.852;2023-03-01T04:05:27;215.52;;;143.07;;
43327;SDS011;28923;45.412;10.852;2023-03-01T04:07:53;210.25;;;141.45;;
43327;SDS011;28923;45.412;10.852;2023-03-01T04:10:26;213.88;;;139.43;;
43327;SDS011;28923;45.412;10.852;2023-03-01T04:12:52;211.70;;;143.05;;
43327;SDS011;28923;45.412;10.852;2023-03-01T04:15:17;219.32;;;141.02;;
43327;SDS011;28923;45.412;10.852;2023-03-01T04:17:43;217.73;;;143.52;;
43327;SDS011;28923;45.412;10.852;2023-03-01T04:20:13;225.55;;;144.27;;
43327;SDS011;28923;45.412;10.852;2023-03-01T04:25:07;209.40;;;138.25;;
43327;SDS011;28923;45.412;10.852;2023-03-01T04:27:33;207.57;;;137.68;;
43327;SDS011;28923;45.412;10.852;2023-03-01T04:29:58;207.65;;;137.18;;
43327;SDS011;28923;45.412;10.852;2023-03-01T04:32:24;198.23;;;135.52;;
43327;SDS011;28923;45.412;10.852;2023-03-01T04:34:49;197.70;;;131.60;;
43327;SDS011;28923;45.412;10.852;2023-03-01T04:37:15;206.15;;;131.98;;
43327;SDS011;28923;45.412;10.852;2023-03-01T04:39:41;190.82;;;130.10;;
43327;SDS011;28923;45.412;10.852;2023-03-01T04:42:13;189.63;;;126.35;;
43327;SDS011;28923;45.412;10.852;2023-03-01T04:44:39;190.88;;;127.13;;
43327;SDS011;28923;45.412;10.852;2023-03-01T04:47:04;182.90;;;123.40;;
43327;SDS011;28923;45.412;10.852;2023-03-01T04:49:30;177.43;;;120.07;;
43327;SDS011;28923;45.412;10.852;2023-03-01T04:51:56;169.75;;;118.43;;
43327;SDS011;28923;45.412;10.852;2023-03-01T04:54:24;173.05;;;116.03;;
43327;SDS011;28923;45.412;10.852;2023-03-01T04:56:49;159.27;;;111.65;;
43327;SDS011;28923;45.412;10.852;2023-03-01T04:59:15;166.27;;;109.43;;
43327;SDS011;28923;45.412;10.852;2023-03-01T05:01:40;156.40;;;109.28;;
43327;SDS011;28923;45.412;10.852;2023-03-01T05:04:07;156.52;;;107.15;;
43327;SDS011;28923;45.412;10.852;2023-03-01T05:06:38;150.82;;;104.70;;
43327;SDS011;28923;45.412;10.852;2023-03-01T05:09:04;147.15;;;101.07;;
43327;SDS011;28923;45.412;10.852;2023-03-01T05:11:30;147.25;;;102.00;;
43327;SDS011;28923;45.412;10.852;2023-03-01T05:13:58;137.27;;;96.45;;
43327;SDS011;28923;45.412;10.852;2023-03-01T05:16:24;143.77;;;94.75;;
43327;SDS011;28923;45.412;10.852;2023-03-01T05:18:49;138.48;;;93.72;;
43327;SDS011;28923;45.412;10.852;2023-03-01T05:21:18;137.52;;;91.63;;
43327;SDS011;28923;45.412;10.852;2023-03-01T05:23:43;131.77;;;89.68;;
43327;SDS011;28923;45.412;10.852;2023-03-01T05:26:09;126.72;;;88.38;;
43327;SDS011;28923;45.412;10.852;2023-03-01T05:28:34;126.10;;;85.82;;
43327;SDS011;28923;45.412;10.852;2023-03-01T05:31:00;124.07;;;85.13;;
43327;SDS011;28923;45.412;10.852;2023-03-01T05:33:25;119.72;;;80.13;;
43327;SDS011;28923;45.412;10.852;2023-03-01T05:35:51;117.43;;;78.03;;
43327;SDS011;28923;45.412;10.852;2023-03-01T05:38:17;114.22;;;76.93;;
43327;SDS011;28923;45.412;10.852;2023-03-01T05:40:44;107.90;;;74.70;;
43327;SDS011;28923;45.412;10.852;2023-03-01T05:43:09;109.18;;;72.22;;
43327;SDS011;28923;45.412;10.852;2023-03-01T05:45:35;107.90;;;72.85;;
43327;SDS011;28923;45.412;10.852;2023-03-01T05:48:01;103.40;;;69.85;;
43327;SDS011;28923;45.412;10.852;2023-03-01T05:50:27;99.20;;;67.30;;
43327;SDS011;28923;45.412;10.852;2023-03-01T05:52:57;102.38;;;67.10;;
43327;SDS011;28923;45.412;10.852;2023-03-01T05:55:22;95.55;;;64.72;;
43327;SDS011;28923;45.412;10.852;2023-03-01T05:57:48;95.68;;;63.45;;
43327;SDS011;28923;45.412;10.852;2023-03-01T06:00:13;95.25;;;63.20;;
43327;SDS011;28923;45.412;10.852;2023-03-01T06:02:39;90.00;;;61.33;;
43327;SDS011;28923;45.412;10.852;2023-03-01T06:05:05;86.95;;;60.08;;
43327;SDS011;28923;45.412;10.852;2023-03-01T06:07:31;86.57;;;58.88;;
43327;SDS011;28923;45.412;10.852;2023-03-01T06:09:56;83.85;;;55.65;;
43327;SDS011;28923;45.412;10.852;2023-03-01T06:12:22;78.53;;;55.08;;
43327;SDS011;28923;45.412;10.852;2023-03-01T06:14:48;77.43;;;54.05;;
43327;SDS011;28923;45.412;10.852;2023-03-01T06:17:13;77.05;;;52.53;;
43327;SDS011;28923;45.412;10.852;2023-03-01T06:19:39;75.95;;;51.53;;
43327;SDS011;28923;45.412;10.852;2023-03-01T06:22:04;74.70;;;50.47;;
43327;SDS011;28923;45.412;10.852;2023-03-01T06:24:29;74.40;;;51.65;;
43327;SDS011;28923;45.412;10.852;2023-03-01T06:26:55;73.97;;;50.42;;
43327;SDS011;28923;45.412;10.852;2023-03-01T06:29:21;68.45;;;47.50;;
43327;SDS011;28923;45.412;10.852;2023-03-01T06:31:48;71.10;;;47.45;;
43327;SDS011;28923;45.412;10.852;2023-03-01T06:34:14;67.70;;;46.22;;
43327;SDS011;28923;45.412;10.852;2023-03-01T06:36:39;66.20;;;46.30;;
43327;SDS011;28923;45.412;10.852;2023-03-01T06:39:05;66.10;;;44.35;;
43327;SDS011;28923;45.412;10.852;2023-03-01T06:41:31;65.63;;;44.45;;
43327;SDS011;28923;45.412;10.852;2023-03-01T06:43:56;64.40;;;43.78;;
43327;SDS011;28923;45.412;10.852;2023-03-01T06:46:22;65.22;;;42.75;;
43327;SDS011;28923;45.412;10.852;2023-03-01T06:48:47;65.03;;;41.40;;
43327;SDS011;28923;45.412;10.852;2023-03-01T06:51:12;63.53;;;40.78;;
43327;SDS011;28923;45.412;10.852;2023-03-01T06:53:38;57.17;;;39.35;;
43327;SDS011;28923;45.412;10.852;2023-03-01T06:56:03;61.38;;;39.58;;
43327;SDS011;28923;45.412;10.852;2023-03-01T06:58:29;56.88;;;37.97;;
43327;SDS011;28923;45.412;10.852;2023-03-01T07:00:54;58.08;;;38.03;;
43327;SDS011;28923;45.412;10.852;2023-03-01T07:03:20;53.22;;;38.50;;
43327;SDS011;28923;45.412;10.852;2023-03-01T07:05:45;50.03;;;35.35;;
43327;SDS011;28923;45.412;10.852;2023-03-01T07:08:10;52.08;;;34.90;;
43327;SDS011;28923;45.412;10.852;2023-03-01T07:10:36;52.60;;;34.13;;
43327;SDS011;28923;45.412;10.852;2023-03-01T07:13:01;48.78;;;32.35;;
43327;SDS011;28923;45.412;10.852;2023-03-01T07:15:27;49.85;;;33.15;;
43327;SDS011;28923;45.412;10.852;2023-03-01T07:17:52;47.33;;;31.33;;
43327;SDS011;28923;45.412;10.852;2023-03-01T07:20:18;47.47;;;31.50;;
43327;SDS011;28923;45.412;10.852;2023-03-01T07:22:44;44.70;;;29.98;;
43327;SDS011;28923;45.412;10.852;2023-03-01T07:25:09;51.35;;;31.25;;
43327;SDS011;28923;45.412;10.852;2023-03-01T07:27:35;44.13;;;29.48;;
43327;SDS011;28923;45.412;10.852;2023-03-01T07:30:01;43.35;;;28.02;;
43327;SDS011;28923;45.412;10.852;2023-03-01T07:32:26;41.72;;;27.98;;
43327;SDS011;28923;45.412;10.852;2023-03-01T07:34:51;47.47;;;28.42;;
43327;SDS011;28923;45.412;10.852;2023-03-01T07:37:17;37.22;;;25.85;;
43327;SDS011;28923;45.412;10.852;2023-03-01T07:39:42;41.90;;;27.83;;
43327;SDS011;28923;45.412;10.852;2023-03-01T07:42:08;42.53;;;26.40;;
43327;SDS011;28923;45.412;10.852;2023-03-01T07:44:33;40.97;;;24.75;;
43327;SDS011;28923;45.412;10.852;2023-03-01T07:46:59;40.20;;;25.75;;
43327;SDS011;28923;45.412;10.852;2023-03-01T07:49:25;34.35;;;23.77;;
43327;SDS011;28923;45.412;10.852;2023-03-01T07:51:51;41.65;;;24.13;;
43327;SDS011;28923;45.412;10.852;2023-03-01T07:54:17;34.67;;;23.48;;
43327;SDS011;28923;45.412;10.852;2023-03-01T07:56:43;41.05;;;24.23;;
43327;SDS011;28923;45.412;10.852;2023-03-01T07:59:08;41.10;;;22.00;;
43327;SDS011;28923;45.412;10.852;2023-03-01T08:01:33;38.72;;;22.08;;
43327;SDS011;28923;45.412;10.852;2023-03-01T08:03:59;37.55;;;21.42;;
43327;SDS011;28923;45.412;10.852;2023-03-01T08:06:24;34.33;;;20.88;;
43327;SDS011;28923;45.412;10.852;2023-03-01T08:08:49;39.28;;;20.02;;
43327;SDS011;28923;45.412;10.852;2023-03-01T08:11:15;41.85;;;21.35;;
43327;SDS011;28923;45.412;10.852;2023-03-01T08:13:41;37.65;;;20.33;;
43327;SDS011;28923;45.412;10.852;2023-03-01T08:16:11;33.33;;;20.13;;
43327;SDS011;28923;45.412;10.852;2023-03-01T08:18:37;34.47;;;20.10;;
43327;SDS011;28923;45.412;10.852;2023-03-01T08:21:06;31.00;;;18.83;;
43327;SDS011;28923;45.412;10.852;2023-03-01T08:23:32;36.50;;;19.25;;
43327;SDS011;28923;45.412;10.852;2023-03-01T08:26:05;34.67;;;18.65;;
43327;SDS011;28923;45.412;10.852;2023-03-01T08:28:31;33.47;;;17.17;;
43327;SDS011;28923;45.412;10.852;2023-03-01T08:30:56;25.58;;;17.52;;
43327;SDS011;28923;45.412;10.852;2023-03-01T08:33:22;25.42;;;16.80;;
43327;SDS011;28923;45.412;10.852;2023-03-01T08:35:47;28.40;;;16.27;;
43327;SDS011;28923;45.412;10.852;2023-03-01T08:38:12;24.63;;;15.98;;
43327;SDS011;28923;45.412;10.852;2023-03-01T08:40:38;28.02;;;16.52;;
43327;SDS011;28923;45.412;10.852;2023-03-01T08:43:03;26.70;;;16.27;;
43327;SDS011;28923;45.412;10.852;2023-03-01T08:45:29;26.92;;;16.25;;
43327;SDS011;28923;45.412;10.852;2023-03-01T08:47:54;26.77;;;16.27;;
43327;SDS011;28923;45.412;10.852;2023-03-01T08:50:19;24.77;;;15.20;;
43327;SDS011;28923;45.412;10.852;2023-03-01T08:52:45;21.00;;;14.60;;
43327;SDS011;28923;45.412;10.852;2023-03-01T08:55:10;21.88;;;14.27;;
43327;SDS011;28923;45.412;10.852;2023-03-01T08:57:36;24.42;;;14.50;;
43327;SDS011;28923;45.412;10.852;2023-03-01T09:00:02;19.42;;;13.60;;
43327;SDS011;28923;45.412;10.852;2023-03-01T09:02:28;24.02;;;13.93;;
43327;SDS011;28923;45.412;10.852;2023-03-01T09:04:53;21.92;;;13.75;;
43327;SDS011;28923;45.412;10.852;2023-03-01T09:07:19;24.65;;;14.38;;
43327;SDS011;28923;45.412;10.852;2023-03-01T09:09:44;20.42;;;13.02;;
43327;SDS011;28923;45.412;10.852;2023-03-01T09:12:10;17.83;;;12.75;;
43327;SDS011;28923;45.412;10.852;2023-03-01T09:14:35;20.25;;;13.10;;
43327;SDS011;28923;45.412;10.852;2023-03-01T09:17:03;17.08;;;12.30;;
43327;SDS011;28923;45.412;10.852;2023-03-01T09:19:28;20.17;;;12.73;;
43327;SDS011;28923;45.412;10.852;2023-03-01T09:21:54;19.20;;;11.23;;
43327;SDS011;28923;45.412;10.852;2023-03-01T09:24:21;18.67;;;12.35;;
43327;SDS011;28923;45.412;10.852;2023-03-01T09:26:47;18.75;;;11.85;;
43327;SDS011;28923;45.412;10.852;2023-03-01T09:29:13;18.55;;;12.02;;
43327;SDS011;28923;45.412;10.852;2023-03-01T09:31:39;19.98;;;12.15;;
43327;SDS011;28923;45.412;10.852;2023-03-01T09:34:04;18.90;;;11.95;;
43327;SDS011;28923;45.412;10.852;2023-03-01T09:36:30;21.25;;;12.43;;
43327;SDS011;28923;45.412;10.852;2023-03-01T09:38:57;18.38;;;12.00;;
43327;SDS011;28923;45.412;10.852;2023-03-01T09:43:52;14.13;;;10.95;;
43327;SDS011;28923;45.412;10.852;2023-03-01T09:46:19;18.95;;;11.68;;
43327;SDS011;28923;45.412;10.852;2023-03-01T09:48:46;18.25;;;11.63;;
43327;SDS011;28923;45.412;10.852;2023-03-01T09:51:18;19.15;;;11.55;;
43327;SDS011;28923;45.412;10.852;2023-03-01T09:53:44;19.55;;;11.18;;
43327;SDS011;28923;45.412;10.852;2023-03-01T09:56:17;15.50;;;10.98;;
43327;SDS011;28923;45.412;10.852;2023-03-01T10:06:21;16.60;;;10.90;;
43327;SDS011;28923;45.412;10.852;2023-03-01T10:08:56;17.00;;;10.13;;
43327;SDS011;28923;45.412;10.852;2023-03-01T10:11:26;15.93;;;10.20;;
43327;SDS011;28923;45.412;10.852;2023-03-01T10:16:31;13.82;;;10.05;;
43327;SDS011;28923;45.412;10.852;2023-03-01T10:19:02;13.30;;;9.80;;
43327;SDS011;28923;45.412;10.852;2023-03-01T10:21:28;14.80;;;8.82;;
43327;SDS011;28923;45.412;10.852;2023-03-01T10:23:58;11.05;;;8.85;;
43327;SDS011;28923;45.412;10.852;2023-03-01T10:31:32;11.32;;;8.82;;
43327;SDS011;28923;45.412;10.852;2023-03-01T10:34:02;11.73;;;9.10;;
43327;SDS011;28923;45.412;10.852;2023-03-01T10:36:28;11.93;;;8.88;;
43327;SDS011;28923;45.412;10.852;2023-03-01T10:38:57;11.70;;;8.20;;
43327;SDS011;28923;45.412;10.852;2023-03-01T10:41:24;12.70;;;8.18;;
43327;SDS011;28923;45.412;10.852;2023-03-01T10:43:51;10.73;;;8.20;;
43327;SDS011;28923;45.412;10.852;2023-03-01T10:46:30;11.90;;;8.32;;
43327;SDS011;28923;45.412;10.852;2023-03-01T10:49:13;10.32;;;8.10;;
43327;SDS011;28923;45.412;10.852;2023-03-01T10:51:40;10.98;;;8.65;;
43327;SDS011;28923;45.412;10.852;2023-03-01T10:54:06;9.40;;;7.95;;
43327;SDS011;28923;45.412;10.852;2023-03-01T10:56:50;12.38;;;8.07;;
43327;SDS011;28923;45.412;10.852;2023-03-01T10:59:32;11.93;;;8.38;;
43327;SDS011;28923;45.412;10.852;2023-03-01T11:04:29;9.43;;;7.95;;
43327;SDS011;28923;45.412;10.852;2023-03-01T11:06:58;10.38;;;7.82;;
43327;SDS011;28923;45.412;10.852;2023-03-01T11:09:24;11.52;;;7.88;;
43327;SDS011;28923;45.412;10.852;2023-03-01T11:11:56;10.38;;;7.78;;
43327;SDS011;28923;45.412;10.852;2023-03-01T11:14:25;13.63;;;8.38;;
43327;SDS011;28923;45.412;10.852;2023-03-01T11:16:58;12.20;;;7.43;;
43327;SDS011;28923;45.412;10.852;2023-03-01T11:19:25;9.88;;;7.60;;
43327;SDS011;28923;45.412;10.852;2023-03-01T11:22:01;10.43;;;7.18;;
43327;SDS011;28923;45.412;10.852;2023-03-01T11:24:33;10.60;;;7.68;;
43327;SDS011;28923;45.412;10.852;2023-03-01T11:26:59;12.10;;;7.40;;
43327;SDS011;28923;45.412;10.852;2023-03-01T11:29:30;8.98;;;7.32;;
43327;SDS011;28923;45.412;10.852;2023-03-01T11:31:58;11.32;;;7.97;;
43327;SDS011;28923;45.412;10.852;2023-03-01T11:34:32;10.07;;;7.40;;
43327;SDS011;28923;45.412;10.852;2023-03-01T11:37:02;10.23;;;7.43;;
43327;SDS011;28923;45.412;10.852;2023-03-01T11:39:38;11.50;;;7.40;;
43327;SDS011;28923;45.412;10.852;2023-03-01T11:42:12;9.55;;;7.40;;
43327;SDS011;28923;45.412;10.852;2023-03-01T11:44:39;8.57;;;7.03;;
43327;SDS011;28923;45.412;10.852;2023-03-01T11:49:40;12.60;;;7.38;;
43327;SDS011;28923;45.412;10.852;2023-03-01T12:00:25;8.60;;;6.30;;
43327;SDS011;28923;45.412;10.852;2023-03-01T12:10:43;7.63;;;6.38;;
43327;SDS011;28923;45.412;10.852;2023-03-01T12:15:45;9.40;;;6.15;;
43327;SDS011;28923;45.412;10.852;2023-03-01T12:20:58;8.88;;;5.75;;
43327;SDS011;28923;45.412;10.852;2023-03-01T12:26:10;12.77;;;5.97;;
43327;SDS011;28923;45.412;10.852;2023-03-01T12:41:48;9.02;;;5.47;;
43327;SDS011;28923;45.412;10.852;2023-03-01T12:49:26;7.47;;;4.85;;
43327;SDS011;28923;45.412;10.852;2023-03-01T12:54:40;6.25;;;4.70;;
43327;SDS011;28923;45.412;10.852;2023-03-01T12:57:21;8.85;;;5.10;;
43327;SDS011;28923;45.412;10.852;2023-03-01T13:02:38;5.78;;;3.95;;
43327;SDS011;28923;45.412;10.852;2023-03-01T13:07:29;7.15;;;4.10;;
43327;SDS011;28923;45.412;10.852;2023-03-01T13:17:47;6.30;;;3.80;;
43327;SDS011;28923;45.412;10.852;2023-03-01T13:20:14;6.30;;;4.20;;
43327;SDS011;28923;45.412;10.852;2023-03-01T13:22:40;4.65;;;3.50;;
43327;SDS011;28923;45.412;10.852;2023-03-01T13:25:18;6.20;;;3.60;;
43327;SDS011;28923;45.412;10.852;2023-03-01T13:27:44;6.78;;;4.32;;
43327;SDS011;28923;45.412;10.852;2023-03-01T13:33:06;9.15;;;3.80;;
43327;SDS011;28923;45.412;10.852;2023-03-01T13:35:43;6.20;;;3.50;;
43327;SDS011;28923;45.412;10.852;2023-03-01T13:43:22;6.03;;;3.45;;
43327;SDS011;28923;45.412;10.852;2023-03-01T13:45:52;5.47;;;3.42;;
43327;SDS011;28923;45.412;10.852;2023-03-01T13:48:22;8.23;;;3.53;;
43327;SDS011;28923;45.412;10.852;2023-03-01T13:50:50;5.72;;;3.40;;
43327;SDS011;28923;45.412;10.852;2023-03-01T13:53:18;4.95;;;3.45;;
43327;SDS011;28923;45.412;10.852;2023-03-01T13:55:45;3.95;;;3.10;;
43327;SDS011;28923;45.412;10.852;2023-03-01T14:00:39;4.63;;;3.15;;
43327;SDS011;28923;45.412;10.852;2023-03-01T14:05:31;4.07;;;3.15;;
43327;SDS011;28923;45.412;10.852;2023-03-01T14:07:56;3.72;;;2.70;;
43327;SDS011;28923;45.412;10.852;2023-03-01T14:10:22;3.75;;;2.92;;
43327;SDS011;28923;45.412;10.852;2023-03-01T14:20:09;3.03;;;2.28;;
43327;SDS011;28923;45.412;10.852;2023-03-01T14:22:36;3.88;;;2.75;;
43327;SDS011;28923;45.412;10.852;2023-03-01T14:25:06;4.53;;;3.20;;
43327;SDS011;28923;45.412;10.852;2023-03-01T14:27:40;4.22;;;2.90;;
43327;SDS011;28923;45.412;10.852;2023-03-01T14:32:35;2.97;;;2.53;;
43327;SDS011;28923;45.412;10.852;2023-03-01T14:35:00;3.05;;;2.67;;
43327;SDS011;28923;45.412;10.852;2023-03-01T14:37:30;5.47;;;3.05;;
43327;SDS011;28923;45.412;10.852;2023-03-01T14:39:57;3.88;;;2.60;;
43327;SDS011;28923;45.412;10.852;2023-03-01T14:42:23;4.65;;;2.35;;
43327;SDS011;28923;45.412;10.852;2023-03-01T14:44:50;3.45;;;2.50;;
43327;SDS011;28923;45.412;10.852;2023-03-01T14:47:29;4.32;;;2.70;;
43327;SDS011;28923;45.412;10.852;2023-03-01T14:49:58;4.25;;;2.88;;
43327;SDS011;28923;45.412;10.852;2023-03-01T14:52:25;4.43;;;2.83;;
43327;SDS011;28923;45.412;10.852;2023-03-01T14:54:54;5.32;;;2.85;;
43327;SDS011;28923;45.412;10.852;2023-03-01T15:00:06;4.50;;;2.90;;
43327;SDS011;28923;45.412;10.852;2023-03-01T15:02:32;3.30;;;2.50;;
43327;SDS011;28923;45.412;10.852;2023-03-01T15:04:58;2.85;;;2.50;;
43327;SDS011;28923;45.412;10.852;2023-03-01T15:07:31;5.00;;;2.17;;
43327;SDS011;28923;45.412;10.852;2023-03-01T15:09:58;5.22;;;3.00;;
43327;SDS011;28923;45.412;10.852;2023-03-01T15:12:34;5.20;;;2.90;;
43327;SDS011;28923;45.412;10.852;2023-03-01T15:15:00;4.55;;;2.60;;
43327;SDS011;28923;45.412;10.852;2023-03-01T15:19:57;7.80;;;2.80;;
43327;SDS011;28923;45.412;10.852;2023-03-01T15:22:23;3.95;;;2.03;;
43327;SDS011;28923;45.412;10.852;2023-03-01T15:24:50;5.75;;;2.63;;
43327;SDS011;28923;45.412;10.852;2023-03-01T15:27:16;4.55;;;2.33;;
43327;SDS011;28923;45.412;10.852;2023-03-01T15:29:48;2.83;;;2.03;;
43327;SDS011;28923;45.412;10.852;2023-03-01T15:34:46;4.80;;;2.17;;
43327;SDS011;28923;45.412;10.852;2023-03-01T15:39:57;4.53;;;2.17;;
43327;SDS011;28923;45.412;10.852;2023-03-01T15:45:10;4.22;;;1.98;;
43327;SDS011;28923;45.412;10.852;2023-03-01T15:47:36;3.80;;;2.28;;
43327;SDS011;28923;45.412;10.852;2023-03-01T15:50:03;4.32;;;2.42;;
43327;SDS011;28923;45.412;10.852;2023-03-01T15:52:32;2.58;;;2.22;;
43327;SDS011;28923;45.412;10.852;2023-03-01T15:55:01;3.75;;;2.20;;
43327;SDS011;28923;45.412;10.852;2023-03-01T15:57:27;3.83;;;2.22;;
43327;SDS011;28923;45.412;10.852;2023-03-01T15:59:52;4.63;;;2.30;;
43327;SDS011;28923;45.412;10.852;2023-03-01T16:02:18;3.72;;;2.10;;
43327;SDS011;28923;45.412;10.852;2023-03-01T16:04:46;6.63;;;2.60;;
43327;SDS011;28923;45.412;10.852;2023-03-01T16:07:11;4.65;;;2.13;;
43327;SDS011;28923;45.412;10.852;2023-03-01T16:09:36;4.10;;;2.40;;
43327;SDS011;28923;45.412;10.852;2023-03-01T16:12:03;3.10;;;2.13;;
43327;SDS011;28923;45.412;10.852;2023-03-01T16:14:28;3.80;;;2.05;;
43327;SDS011;28923;45.412;10.852;2023-03-01T16:16:55;4.70;;;2.20;;
43327;SDS011;28923;45.412;10.852;2023-03-01T16:19:20;4.65;;;1.90;;